createdAt,value
2022-11-15T00:00:55.670Z,0.00
2022-11-15T00:01:54.572Z,0.00
2022-11-15T00:02:54.942Z,0.00
2022-11-15T00:03:57.039Z,0.00
2022-11-15T00:04:57.211Z,0.00
2022-11-15T00:05:55.712Z,0.00
2022-11-15T00:06:57.961Z,0.00
2022-11-15T00:07:56.533Z,0.00
2022-11-15T00:08:58.471Z,0.00
2022-11-15T00:09:58.727Z,0.00
2022-11-15T00:10:58.126Z,0.00
2022-11-15T00:11:57.477Z,0.00
2022-11-15T00:12:59.661Z,0.00
2022-11-15T00:13:59.854Z,0.00
2022-11-15T00:14:58.350Z,0.00
2022-11-15T00:15:58.867Z,0.00
2022-11-15T00:16:58.886Z,0.00
2022-11-15T00:17:59.182Z,0.00
2022-11-15T00:19:01.367Z,0.00
2022-11-15T00:19:59.742Z,0.00
2022-11-15T00:21:01.933Z,0.00
2022-11-15T00:22:00.357Z,0.00
2022-11-15T00:23:00.548Z,0.00
2022-11-15T00:24:00.852Z,0.00
2022-11-15T00:25:01.155Z,0.00
2022-11-15T00:26:03.330Z,0.00
2022-11-15T00:27:01.701Z,0.00
2022-11-15T00:28:01.998Z,0.00
2022-11-15T00:29:02.293Z,0.00
2022-11-15T00:30:02.596Z,0.00
2022-11-15T00:31:05.792Z,0.00
2022-11-15T00:32:03.211Z,0.00
2022-11-15T00:33:03.503Z,0.00
2022-11-15T00:34:03.857Z,0.00
2022-11-15T00:35:05.988Z,0.00
2022-11-15T00:36:04.363Z,0.00
2022-11-15T00:37:04.642Z,0.00
2022-11-15T00:38:04.938Z,0.00
2022-11-15T00:39:07.119Z,0.00
2022-11-15T00:40:07.317Z,0.00
2022-11-15T00:41:09.631Z,0.00
2022-11-15T00:42:06.107Z,0.00
2022-11-15T00:43:06.435Z,0.00
2022-11-15T00:44:06.703Z,0.00
2022-11-15T00:45:08.886Z,0.00
2022-11-15T00:46:07.252Z,0.00
2022-11-15T00:47:09.500Z,0.00
2022-11-15T00:48:07.875Z,0.00
2022-11-15T00:49:08.152Z,0.00
2022-11-15T00:50:14.845Z,0.00
2022-11-15T00:51:08.711Z,0.00
2022-11-15T00:52:09.005Z,0.00
2022-11-15T00:53:09.340Z,0.00
2022-11-15T00:54:11.479Z,0.00
2022-11-15T00:55:09.965Z,0.00
2022-11-15T00:56:10.264Z,0.00
2022-11-15T00:57:10.554Z,0.00
2022-11-15T00:58:10.850Z,0.00
2022-11-15T00:59:11.134Z,0.00
2022-11-15T01:00:14.329Z,0.00
2022-11-15T01:01:11.758Z,0.00
2022-11-15T01:02:12.025Z,0.00
2022-11-15T01:03:12.337Z,0.00
2022-11-15T01:04:12.625Z,0.00
2022-11-15T01:05:15.765Z,0.00
2022-11-15T01:06:13.155Z,0.00
2022-11-15T01:07:13.522Z,0.00
2022-11-15T01:08:13.799Z,0.00
2022-11-15T01:09:14.086Z,0.00
2022-11-15T01:10:17.237Z,0.00
2022-11-15T01:11:17.908Z,0.00
2022-11-15T01:12:14.926Z,0.00
2022-11-15T01:13:16.225Z,0.00
2022-11-15T01:14:17.703Z,0.00
2022-11-15T01:15:16.538Z,0.00
2022-11-15T01:16:17.946Z,0.00
2022-11-15T01:17:17.114Z,0.00
2022-11-15T01:18:17.536Z,0.00
2022-11-15T01:19:17.690Z,0.00
2022-11-15T01:20:17.157Z,0.00
2022-11-15T01:21:19.336Z,0.00
2022-11-15T01:22:17.700Z,0.00
2022-11-15T01:23:18.843Z,0.00
2022-11-15T01:24:18.315Z,0.00
2022-11-15T01:25:20.511Z,0.00
2022-11-15T01:26:18.867Z,0.00
2022-11-15T01:27:19.164Z,0.00
2022-11-15T01:28:21.466Z,0.00
2022-11-15T01:29:20.578Z,0.00
2022-11-15T01:30:23.382Z,0.00
2022-11-15T01:31:21.147Z,0.00
2022-11-15T01:32:21.563Z,0.00
2022-11-15T01:33:21.723Z,0.00
2022-11-15T01:34:24.169Z,0.00
2022-11-15T01:35:23.252Z,0.00
2022-11-15T01:36:21.746Z,0.00
2022-11-15T01:37:22.032Z,0.00
2022-11-15T01:38:22.325Z,0.00
2022-11-15T01:39:22.610Z,0.00
2022-11-15T01:40:24.807Z,0.00
2022-11-15T01:41:24.969Z,0.00
2022-11-15T01:42:25.157Z,0.00
2022-11-15T01:43:25.330Z,0.00
2022-11-15T01:44:26.008Z,0.00
2022-11-15T01:45:26.239Z,0.00
2022-11-15T01:46:24.723Z,0.00
2022-11-15T01:47:26.899Z,0.00
2022-11-15T01:48:27.037Z,0.00
2022-11-15T01:49:27.332Z,0.00
2022-11-15T01:50:27.401Z,0.00
2022-11-15T01:51:28.347Z,0.00
2022-11-15T01:52:26.481Z,0.00
2022-11-15T01:53:28.880Z,0.00
2022-11-15T01:54:28.842Z,0.00
2022-11-15T01:55:29.035Z,0.00
2022-11-15T01:56:29.732Z,0.00
2022-11-15T01:57:29.913Z,0.00
2022-11-15T01:58:28.410Z,0.00
2022-11-15T01:59:28.737Z,0.00
2022-11-15T02:00:30.936Z,0.00
2022-11-15T02:01:29.334Z,0.00
2022-11-15T02:02:29.644Z,0.00
2022-11-15T02:03:30.435Z,0.00
2022-11-15T02:04:30.254Z,0.00
2022-11-15T02:05:33.893Z,0.00
2022-11-15T02:06:30.801Z,0.00
2022-11-15T02:07:33.036Z,0.00
2022-11-15T02:08:31.402Z,0.00
2022-11-15T02:09:31.685Z,0.00
2022-11-15T02:10:33.875Z,0.00
2022-11-15T02:11:32.238Z,0.00
2022-11-15T02:12:34.480Z,0.00
2022-11-15T02:13:33.172Z,0.00
2022-11-15T02:14:33.178Z,0.00
2022-11-15T02:15:35.353Z,0.00
2022-11-15T02:16:33.721Z,0.00
2022-11-15T02:17:35.911Z,0.00
2022-11-15T02:18:36.093Z,0.00
2022-11-15T02:19:34.583Z,0.00
2022-11-15T02:20:34.873Z,0.00
2022-11-15T02:21:37.054Z,0.00
2022-11-15T02:22:35.420Z,0.00
2022-11-15T02:23:37.611Z,0.00
2022-11-15T02:24:37.829Z,0.00
2022-11-15T02:25:36.897Z,0.00
2022-11-15T02:26:38.508Z,0.00
2022-11-15T02:27:36.873Z,0.00
2022-11-15T02:28:37.173Z,0.00
2022-11-15T02:29:39.332Z,0.00
2022-11-15T02:30:37.702Z,0.00
2022-11-15T02:31:38.002Z,0.00
2022-11-15T02:32:40.182Z,0.00
2022-11-15T02:33:38.545Z,0.00
2022-11-15T02:34:38.842Z,0.00
2022-11-15T02:35:39.133Z,0.00
2022-11-15T02:36:39.420Z,0.00
2022-11-15T02:37:41.608Z,0.00
2022-11-15T02:38:39.980Z,0.00
2022-11-15T02:39:40.266Z,0.00
2022-11-15T02:40:40.566Z,0.00
2022-11-15T02:41:40.858Z,0.00
2022-11-15T02:42:43.046Z,0.00
2022-11-15T02:43:41.408Z,0.00
2022-11-15T02:44:43.602Z,0.00
2022-11-15T02:45:41.968Z,0.00
2022-11-15T02:46:42.257Z,0.00
2022-11-15T02:47:44.417Z,0.00
2022-11-15T02:48:42.776Z,0.00
2022-11-15T02:49:43.066Z,0.00
2022-11-15T02:50:45.345Z,0.00
2022-11-15T02:51:43.686Z,0.00
2022-11-15T02:52:43.876Z,0.00
2022-11-15T02:53:46.020Z,0.00
2022-11-15T02:54:44.426Z,0.00
2022-11-15T02:55:47.565Z,0.00
2022-11-15T02:56:44.968Z,0.00
2022-11-15T02:57:48.108Z,0.00
2022-11-15T02:58:46.328Z,0.00
2022-11-15T02:59:47.688Z,0.00
2022-11-15T03:00:47.908Z,0.00
2022-11-15T03:01:46.363Z,0.00
2022-11-15T03:02:46.826Z,0.00
2022-11-15T03:03:46.947Z,0.00
2022-11-15T03:04:48.015Z,0.00
2022-11-15T03:05:49.425Z,0.00
2022-11-15T03:06:51.142Z,0.00
2022-11-15T03:07:48.026Z,0.00
2022-11-15T03:08:51.169Z,0.00
2022-11-15T03:09:49.370Z,0.00
2022-11-15T03:10:50.827Z,0.00
2022-11-15T03:11:51.999Z,0.00
2022-11-15T03:12:50.363Z,0.00
2022-11-15T03:13:51.722Z,0.00
2022-11-15T03:14:50.938Z,0.00
2022-11-15T03:15:51.354Z,0.00
2022-11-15T03:16:52.596Z,0.00
2022-11-15T03:17:50.998Z,0.00
2022-11-15T03:18:53.170Z,0.00
2022-11-15T03:19:51.535Z,0.00
2022-11-15T03:20:53.725Z,0.00
2022-11-15T03:21:53.082Z,0.00
2022-11-15T03:22:55.236Z,0.00
2022-11-15T03:23:54.440Z,0.00
2022-11-15T03:24:53.060Z,0.00
2022-11-15T03:25:55.247Z,0.00
2022-11-15T03:26:54.576Z,0.00
2022-11-15T03:27:55.805Z,0.00
2022-11-15T03:28:54.968Z,0.00
2022-11-15T03:29:57.331Z,0.00
2022-11-15T03:30:56.528Z,0.00
2022-11-15T03:31:56.704Z,0.00
2022-11-15T03:32:55.320Z,0.00
2022-11-15T03:33:55.616Z,0.00
2022-11-15T03:34:55.915Z,0.00
2022-11-15T03:35:56.203Z,0.00
2022-11-15T03:36:56.590Z,0.00
2022-11-15T03:37:58.341Z,0.00
2022-11-15T03:38:58.991Z,0.00
2022-11-15T03:39:59.179Z,0.00
2022-11-15T03:40:59.346Z,0.00
2022-11-15T03:41:59.550Z,0.00
2022-11-15T03:43:00.208Z,0.00
2022-11-15T03:43:58.590Z,0.00
2022-11-15T03:45:00.767Z,0.00
2022-11-15T03:45:59.130Z,0.00
2022-11-15T03:47:01.325Z,0.00
2022-11-15T03:47:59.686Z,0.00
2022-11-15T03:49:01.881Z,0.00
2022-11-15T03:50:02.073Z,0.00
2022-11-15T03:51:02.256Z,0.00
2022-11-15T03:52:02.435Z,0.00
2022-11-15T03:53:03.134Z,0.00
2022-11-15T03:54:03.351Z,0.00
2022-11-15T03:55:03.503Z,0.00
2022-11-15T03:56:03.676Z,0.00
2022-11-15T03:57:04.361Z,0.00
2022-11-15T03:58:04.557Z,0.00
2022-11-15T03:59:03.067Z,0.00
2022-11-15T04:00:05.238Z,0.00
2022-11-15T04:01:03.649Z,0.00
2022-11-15T04:02:05.797Z,0.00
2022-11-15T04:03:04.171Z,0.00
2022-11-15T04:04:06.351Z,0.00
2022-11-15T04:05:04.713Z,0.00
2022-11-15T04:06:06.902Z,0.00
2022-11-15T04:07:05.298Z,0.00
2022-11-15T04:08:05.562Z,0.00
2022-11-15T04:09:05.848Z,0.00
2022-11-15T04:10:06.154Z,0.00
2022-11-15T04:11:08.332Z,0.00
2022-11-15T04:12:06.702Z,0.00
2022-11-15T04:13:08.891Z,0.00
2022-11-15T04:14:07.265Z,0.00
2022-11-15T04:15:07.553Z,0.00
2022-11-15T04:16:07.852Z,0.00
2022-11-15T04:17:08.161Z,0.00
2022-11-15T04:18:10.323Z,0.00
2022-11-15T04:19:08.693Z,0.00
2022-11-15T04:20:08.994Z,0.00
2022-11-15T04:21:10.275Z,0.00
2022-11-15T04:22:11.461Z,0.00
2022-11-15T04:23:09.971Z,0.00
2022-11-15T04:24:12.173Z,0.00
2022-11-15T04:25:10.526Z,0.00
2022-11-15T04:26:10.816Z,0.00
2022-11-15T04:27:11.098Z,0.00
2022-11-15T04:28:13.284Z,0.00
2022-11-15T04:29:11.644Z,0.00
2022-11-15T04:30:11.938Z,0.00
2022-11-15T04:31:12.221Z,0.00
2022-11-15T04:32:12.506Z,0.00
2022-11-15T04:33:14.712Z,0.00
2022-11-15T04:34:13.082Z,0.00
2022-11-15T04:35:13.380Z,0.00
2022-11-15T04:36:13.674Z,0.00
2022-11-15T04:37:13.971Z,0.00
2022-11-15T04:38:16.281Z,0.00
2022-11-15T04:39:14.638Z,0.00
2022-11-15T04:40:14.864Z,0.00
2022-11-15T04:41:17.050Z,0.00
2022-11-15T04:42:15.422Z,0.00
2022-11-15T04:43:15.704Z,0.00
2022-11-15T04:44:16.004Z,0.00
2022-11-15T04:45:16.302Z,0.00
2022-11-15T04:46:18.476Z,0.00
2022-11-15T04:47:16.840Z,0.00
2022-11-15T04:48:19.025Z,0.00
2022-11-15T04:49:17.388Z,0.00
2022-11-15T04:50:17.685Z,0.00
2022-11-15T04:51:17.947Z,0.00
2022-11-15T04:52:18.213Z,0.00
2022-11-15T04:53:20.404Z,0.00
2022-11-15T04:54:21.545Z,0.00
2022-11-15T04:55:20.775Z,0.00
2022-11-15T04:56:19.392Z,0.00
2022-11-15T04:57:19.688Z,0.00
2022-11-15T04:58:19.976Z,0.00
2022-11-15T04:59:22.179Z,0.00
2022-11-15T05:00:20.553Z,0.00
2022-11-15T05:01:22.822Z,0.00
2022-11-15T05:02:22.911Z,0.00
2022-11-15T05:03:21.777Z,0.00
2022-11-15T05:04:24.580Z,0.00
2022-11-15T05:05:21.963Z,0.00
2022-11-15T05:06:24.342Z,0.00
2022-11-15T05:07:25.348Z,0.00
2022-11-15T05:08:23.782Z,0.00
2022-11-15T05:09:24.026Z,0.00
2022-11-15T05:10:24.186Z,0.00
2022-11-15T05:11:26.138Z,0.00
2022-11-15T05:12:25.850Z,0.00
2022-11-15T05:13:25.169Z,0.00
2022-11-15T05:14:25.342Z,0.00
2022-11-15T05:15:26.700Z,0.00
2022-11-15T05:16:25.923Z,0.00
2022-11-15T05:17:27.259Z,0.00
2022-11-15T05:18:26.045Z,0.00
2022-11-15T05:19:25.890Z,0.00
2022-11-15T05:20:26.236Z,0.00
2022-11-15T05:21:28.462Z,0.00
2022-11-15T05:22:26.709Z,0.00
2022-11-15T05:23:27.802Z,0.00
2022-11-15T05:24:30.483Z,0.00
2022-11-15T05:25:27.504Z,0.00
2022-11-15T05:26:29.691Z,0.00
2022-11-15T05:27:28.054Z,0.00
2022-11-15T05:28:28.363Z,0.00
2022-11-15T05:29:28.647Z,0.00
2022-11-15T05:30:30.864Z,0.00
2022-11-15T05:31:30.107Z,0.00
2022-11-15T05:32:30.266Z,0.00
2022-11-15T05:33:31.987Z,0.00
2022-11-15T05:34:30.040Z,0.00
2022-11-15T05:35:30.337Z,0.00
2022-11-15T05:36:32.559Z,0.00
2022-11-15T05:37:32.749Z,0.00
2022-11-15T05:38:32.944Z,0.00
2022-11-15T05:39:33.135Z,0.00
2022-11-15T05:40:33.840Z,0.00
2022-11-15T05:41:34.001Z,0.00
2022-11-15T05:42:32.490Z,0.00
2022-11-15T05:43:34.671Z,0.00
2022-11-15T05:44:34.869Z,0.00
2022-11-15T05:45:35.048Z,0.00
2022-11-15T05:46:35.248Z,0.00
2022-11-15T05:47:35.916Z,0.00
2022-11-15T05:48:36.114Z,0.00
2022-11-15T05:49:36.297Z,0.00
2022-11-15T05:50:36.610Z,0.00
2022-11-15T05:51:37.179Z,0.00
2022-11-15T05:52:37.370Z,0.00
2022-11-15T05:53:37.557Z,0.00
2022-11-15T05:54:38.013Z,0.00
2022-11-15T05:55:38.448Z,0.00
2022-11-15T05:56:36.816Z,0.00
2022-11-15T05:57:38.994Z,0.00
2022-11-15T05:58:39.178Z,0.00
2022-11-15T05:59:37.666Z,0.00
2022-11-15T06:00:39.861Z,0.00
2022-11-15T06:01:38.273Z,0.00
2022-11-15T06:02:40.431Z,0.00
2022-11-15T06:03:40.601Z,0.00
2022-11-15T06:04:39.100Z,0.00
2022-11-15T06:05:42.712Z,0.00
2022-11-15T06:06:39.734Z,0.00
2022-11-15T06:07:40.021Z,0.00
2022-11-15T06:08:42.211Z,0.00
2022-11-15T06:09:40.573Z,0.00
2022-11-15T06:10:41.723Z,0.00
2022-11-15T06:11:41.194Z,0.00
2022-11-15T06:12:43.382Z,0.00
2022-11-15T06:13:41.751Z,0.00
2022-11-15T06:14:42.041Z,0.00
2022-11-15T06:15:42.334Z,0.00
2022-11-15T06:16:42.629Z,0.00
2022-11-15T06:17:44.819Z,0.00
2022-11-15T06:18:45.008Z,0.00
2022-11-15T06:19:43.757Z,0.00
2022-11-15T06:20:43.768Z,0.00
2022-11-15T06:21:44.170Z,0.00
2022-11-15T06:22:44.486Z,0.00
2022-11-15T06:23:46.523Z,0.00
2022-11-15T06:24:44.920Z,0.00
2022-11-15T06:25:45.535Z,0.00
2022-11-15T06:26:45.491Z,0.00
2022-11-15T06:27:46.755Z,0.00
2022-11-15T06:28:49.483Z,0.00
2022-11-15T06:29:48.179Z,0.00
2022-11-15T06:30:51.931Z,0.00
2022-11-15T06:31:48.008Z,0.00
2022-11-15T06:32:47.250Z,0.00
2022-11-15T06:33:49.433Z,0.00
2022-11-15T06:34:47.814Z,0.00
2022-11-15T06:35:48.115Z,0.00
2022-11-15T06:36:48.765Z,0.00
2022-11-15T06:37:48.745Z,0.00
2022-11-15T06:38:50.934Z,0.00
2022-11-15T06:39:49.312Z,5.62
2022-11-15T06:40:50.487Z,5.62
2022-11-15T06:41:49.852Z,5.62
2022-11-15T06:42:50.171Z,5.62
2022-11-15T06:43:52.365Z,5.62
2022-11-15T06:44:50.752Z,5.62
2022-11-15T06:45:52.937Z,5.62
2022-11-15T06:46:51.326Z,5.62
2022-11-15T06:47:51.637Z,5.62
2022-11-15T06:48:53.824Z,5.62
2022-11-15T06:49:52.219Z,5.62
2022-11-15T06:50:55.355Z,5.62
2022-11-15T06:51:52.884Z,5.62
2022-11-15T06:52:56.510Z,11.25
2022-11-15T06:53:53.544Z,11.25
2022-11-15T06:54:53.866Z,11.25
2022-11-15T06:55:55.675Z,11.25
2022-11-15T06:56:56.365Z,11.25
2022-11-15T06:57:54.751Z,11.25
2022-11-15T06:58:55.279Z,11.25
2022-11-15T06:59:57.277Z,11.25
2022-11-15T07:00:56.522Z,11.25
2022-11-15T07:01:56.794Z,11.25
2022-11-15T07:02:57.136Z,16.88
2022-11-15T07:03:57.468Z,16.88
2022-11-15T07:04:57.793Z,22.50
2022-11-15T07:06:04.207Z,22.50
2022-11-15T07:06:58.481Z,22.50
2022-11-15T07:07:59.585Z,28.12
2022-11-15T07:08:59.750Z,28.12
2022-11-15T07:09:59.927Z,33.75
2022-11-15T07:11:00.094Z,33.75
2022-11-15T07:12:06.222Z,33.75
2022-11-15T07:13:00.207Z,33.75
2022-11-15T07:14:01.378Z,33.75
2022-11-15T07:15:01.538Z,33.75
2022-11-15T07:16:01.714Z,33.75
2022-11-15T07:17:01.903Z,33.75
2022-11-15T07:18:02.591Z,39.38
2022-11-15T07:19:02.775Z,50.62
2022-11-15T07:20:02.963Z,56.25
2022-11-15T07:21:01.634Z,56.25
2022-11-15T07:22:03.806Z,50.62
2022-11-15T07:23:03.966Z,56.25
2022-11-15T07:24:04.123Z,56.25
2022-11-15T07:25:02.656Z,56.25
2022-11-15T07:26:03.843Z,56.25
2022-11-15T07:27:05.058Z,56.25
2022-11-15T07:28:05.225Z,56.25
2022-11-15T07:29:03.784Z,56.25
2022-11-15T07:30:05.980Z,56.25
2022-11-15T07:31:05.378Z,61.88
2022-11-15T07:32:06.563Z,56.25
2022-11-15T07:33:06.811Z,56.25
2022-11-15T07:34:06.918Z,56.25
2022-11-15T07:35:07.478Z,50.62
2022-11-15T07:36:05.758Z,50.62
2022-11-15T07:37:06.092Z,50.62
2022-11-15T07:38:09.231Z,39.38
2022-11-15T07:39:08.456Z,39.38
2022-11-15T07:40:08.657Z,39.38
2022-11-15T07:41:10.337Z,39.38
2022-11-15T07:42:07.617Z,39.38
2022-11-15T07:43:09.818Z,45.00
2022-11-15T07:44:10.198Z,50.62
2022-11-15T07:45:10.196Z,50.62
2022-11-15T07:46:10.693Z,50.62
2022-11-15T07:47:10.578Z,56.25
2022-11-15T07:48:11.262Z,56.25
2022-11-15T07:49:11.451Z,50.62
2022-11-15T07:50:11.640Z,45.00
2022-11-15T07:51:14.140Z,45.00
2022-11-15T07:52:10.531Z,45.00
2022-11-15T07:53:12.732Z,45.00
2022-11-15T07:54:11.121Z,56.25
2022-11-15T07:55:11.448Z,56.25
2022-11-15T07:56:13.633Z,56.25
2022-11-15T07:57:12.040Z,56.25
2022-11-15T07:58:12.810Z,56.25
2022-11-15T07:59:12.688Z,56.25
2022-11-15T08:00:13.023Z,56.25
2022-11-15T08:01:13.550Z,56.25
2022-11-15T08:02:13.736Z,61.88
2022-11-15T08:03:13.952Z,73.12
2022-11-15T08:04:14.277Z,84.38
2022-11-15T08:05:14.608Z,90.00
2022-11-15T08:06:16.780Z,90.00
2022-11-15T08:07:17.026Z,95.62
2022-11-15T08:08:17.160Z,101.25
2022-11-15T08:09:15.812Z,101.25
2022-11-15T08:10:16.143Z,101.25
2022-11-15T08:11:17.470Z,112.50
2022-11-15T08:12:18.653Z,129.38
2022-11-15T08:13:18.977Z,135.00
2022-11-15T08:14:17.324Z,140.62
2022-11-15T08:15:17.647Z,140.62
2022-11-15T08:16:19.832Z,140.62
2022-11-15T08:17:18.244Z,146.25
2022-11-15T08:18:18.575Z,129.38
2022-11-15T08:19:18.899Z,112.50
2022-11-15T08:20:19.229Z,106.88
2022-11-15T08:21:21.601Z,118.12
2022-11-15T08:22:19.862Z,118.12
2022-11-15T08:23:22.032Z,123.75
2022-11-15T08:24:20.430Z,140.62
2022-11-15T08:25:20.757Z,174.38
2022-11-15T08:26:21.088Z,185.62
2022-11-15T08:27:21.449Z,180.00
2022-11-15T08:28:23.649Z,168.75
2022-11-15T08:29:23.763Z,157.50
2022-11-15T08:30:22.297Z,157.50
2022-11-15T08:31:22.615Z,163.12
2022-11-15T08:32:22.943Z,168.75
2022-11-15T08:33:23.270Z,180.00
2022-11-15T08:34:25.455Z,196.88
2022-11-15T08:35:29.007Z,180.00
2022-11-15T08:36:24.092Z,163.12
2022-11-15T08:37:24.436Z,168.75
2022-11-15T08:38:26.595Z,151.88
2022-11-15T08:39:26.775Z,140.62
2022-11-15T08:40:27.935Z,157.50
2022-11-15T08:41:27.146Z,157.50
2022-11-15T08:42:28.779Z,180.00
2022-11-15T08:43:27.035Z,168.75
2022-11-15T08:44:27.387Z,174.38
2022-11-15T08:45:26.775Z,191.25
2022-11-15T08:46:27.104Z,191.25
2022-11-15T08:47:29.290Z,180.00
2022-11-15T08:48:27.700Z,163.12
2022-11-15T08:49:28.027Z,157.50
2022-11-15T08:50:31.170Z,140.62
2022-11-15T08:51:28.584Z,118.12
2022-11-15T08:52:28.915Z,129.38
2022-11-15T08:53:30.173Z,135.00
2022-11-15T08:54:30.530Z,157.50
2022-11-15T08:55:31.755Z,196.88
2022-11-15T08:56:31.117Z,230.62
2022-11-15T08:57:31.337Z,208.12
2022-11-15T08:58:32.969Z,191.25
2022-11-15T08:59:32.100Z,180.00
2022-11-15T09:00:33.348Z,180.00
2022-11-15T09:01:33.663Z,202.50
2022-11-15T09:02:32.075Z,185.62
2022-11-15T09:03:32.411Z,163.12
2022-11-15T09:04:32.739Z,151.88
2022-11-15T09:05:33.086Z,146.25
2022-11-15T09:06:34.279Z,157.50
2022-11-15T09:07:34.534Z,174.38
2022-11-15T09:08:51.074Z,208.12
2022-11-15T09:09:36.917Z,196.88
2022-11-15T09:10:36.111Z,208.12
2022-11-15T09:11:37.807Z,196.88
2022-11-15T09:12:35.104Z,196.88
2022-11-15T09:13:35.429Z,208.12
2022-11-15T09:14:36.622Z,219.38
2022-11-15T09:15:39.262Z,219.38
2022-11-15T09:16:36.998Z,230.62
2022-11-15T09:17:36.639Z,236.25
2022-11-15T09:18:38.840Z,236.25
2022-11-15T09:19:39.027Z,241.88
2022-11-15T09:20:39.213Z,253.12
2022-11-15T09:21:39.390Z,247.50
2022-11-15T09:22:40.078Z,241.88
2022-11-15T09:23:40.266Z,247.50
2022-11-15T09:24:40.548Z,281.25
2022-11-15T09:25:40.650Z,281.25
2022-11-15T09:26:39.842Z,281.25
2022-11-15T09:27:41.532Z,253.12
2022-11-15T09:28:41.721Z,230.62
2022-11-15T09:29:40.254Z,213.75
2022-11-15T09:30:40.600Z,213.75
2022-11-15T09:31:42.791Z,225.00
2022-11-15T09:32:44.436Z,213.75
2022-11-15T09:33:41.485Z,208.12
2022-11-15T09:34:41.829Z,208.12
2022-11-15T09:35:44.002Z,219.38
2022-11-15T09:36:44.249Z,241.88
2022-11-15T09:37:42.656Z,241.88
2022-11-15T09:38:42.991Z,208.12
2022-11-15T09:39:43.333Z,213.75
2022-11-15T09:40:46.982Z,219.38
2022-11-15T09:41:43.967Z,225.00
2022-11-15T09:42:46.088Z,230.62
2022-11-15T09:43:44.538Z,241.88
2022-11-15T09:44:44.753Z,270.00
2022-11-15T09:45:45.090Z,275.62
2022-11-15T09:46:45.437Z,264.38
2022-11-15T09:47:47.618Z,247.50
2022-11-15T09:48:47.800Z,225.00
2022-11-15T09:49:46.366Z,208.12
2022-11-15T09:50:47.485Z,202.50
2022-11-15T09:51:48.011Z,191.25
2022-11-15T09:52:49.079Z,168.75
2022-11-15T09:54:24.096Z,174.38
2022-11-15T09:54:53.733Z,185.62
2022-11-15T09:55:49.009Z,191.25
2022-11-15T09:56:48.280Z,202.50
2022-11-15T09:57:50.459Z,225.00
2022-11-15T09:58:48.875Z,247.50
2022-11-15T09:59:49.216Z,247.50
2022-11-15T10:00:49.706Z,253.12
2022-11-15T10:01:51.907Z,230.62
2022-11-15T10:02:51.944Z,213.75
2022-11-15T10:03:50.477Z,208.12
2022-11-15T10:04:50.818Z,208.12
2022-11-15T10:05:53.019Z,219.38
2022-11-15T10:06:51.433Z,236.25
2022-11-15T10:07:53.593Z,247.50
2022-11-15T10:08:52.011Z,241.88
2022-11-15T10:09:52.236Z,219.38
2022-11-15T10:11:15.909Z,213.75
2022-11-15T10:11:53.892Z,208.12
2022-11-15T10:12:53.166Z,196.88
2022-11-15T10:13:53.566Z,191.25
2022-11-15T10:14:54.781Z,185.62
2022-11-15T10:15:55.955Z,163.12
2022-11-15T10:16:54.262Z,146.25
2022-11-15T10:17:54.467Z,146.25
2022-11-15T10:18:56.088Z,140.62
2022-11-15T10:19:55.162Z,140.62
2022-11-15T10:20:57.318Z,135.00
2022-11-15T10:21:55.603Z,140.62
2022-11-15T10:22:55.948Z,151.88
2022-11-15T10:23:56.295Z,146.25
2022-11-15T10:24:56.628Z,140.62
2022-11-15T10:26:03.699Z,140.62
2022-11-15T10:26:58.258Z,146.25
2022-11-15T10:27:57.528Z,157.50
2022-11-15T10:28:57.875Z,168.75
2022-11-15T10:29:58.214Z,174.38
2022-11-15T10:31:01.904Z,157.50
2022-11-15T10:32:01.559Z,151.88
2022-11-15T10:32:59.112Z,151.88
2022-11-15T10:34:01.297Z,174.38
2022-11-15T10:34:59.587Z,196.88
2022-11-15T10:36:00.825Z,202.50
2022-11-15T10:37:02.180Z,196.88
2022-11-15T10:38:02.342Z,180.00
2022-11-15T10:39:02.542Z,174.38
2022-11-15T10:40:01.081Z,163.12
2022-11-15T10:41:02.428Z,146.25
2022-11-15T10:42:09.578Z,135.00
2022-11-15T10:43:03.740Z,129.38
2022-11-15T10:44:02.164Z,135.00
2022-11-15T10:45:05.290Z,129.38
2022-11-15T10:46:24.677Z,140.62
2022-11-15T10:47:04.901Z,174.38
2022-11-15T10:48:04.293Z,168.75
2022-11-15T10:49:05.492Z,140.62
2022-11-15T10:50:04.854Z,135.00
2022-11-15T10:51:06.162Z,140.62
2022-11-15T10:52:05.412Z,140.62
2022-11-15T10:53:05.597Z,146.25
2022-11-15T10:54:10.411Z,151.88
2022-11-15T10:55:06.341Z,140.62
2022-11-15T10:56:07.546Z,140.62
2022-11-15T10:57:05.948Z,146.25
2022-11-15T10:58:06.282Z,135.00
2022-11-15T10:59:09.439Z,135.00
2022-11-15T11:00:08.657Z,146.25
2022-11-15T11:01:08.236Z,151.88
2022-11-15T11:02:07.470Z,168.75
2022-11-15T11:03:07.822Z,168.75
2022-11-15T11:04:09.003Z,168.75
2022-11-15T11:05:08.412Z,157.50
2022-11-15T11:06:10.599Z,151.88
2022-11-15T11:07:10.771Z,135.00
2022-11-15T11:08:10.936Z,123.75
2022-11-15T11:09:09.593Z,123.75
2022-11-15T11:10:36.246Z,140.62
2022-11-15T11:11:11.170Z,168.75
2022-11-15T11:12:12.342Z,174.38
2022-11-15T11:13:12.516Z,151.88
2022-11-15T11:14:11.044Z,135.00
2022-11-15T11:15:11.380Z,123.75
2022-11-15T11:16:13.562Z,118.12
2022-11-15T11:17:12.742Z,118.12
2022-11-15T11:18:12.263Z,118.12
2022-11-15T11:19:14.516Z,112.50
2022-11-15T11:20:14.785Z,95.62
2022-11-15T11:21:14.878Z,84.38
2022-11-15T11:22:15.072Z,95.62
2022-11-15T11:23:15.806Z,84.38
2022-11-15T11:24:15.964Z,84.38
2022-11-15T11:25:16.157Z,95.62
2022-11-15T11:26:16.335Z,106.88
2022-11-15T11:27:16.535Z,118.12
2022-11-15T11:28:17.376Z,106.88
2022-11-15T11:29:15.657Z,95.62
2022-11-15T11:30:17.847Z,90.00
2022-11-15T11:31:18.114Z,95.62
2022-11-15T11:32:16.516Z,95.62
2022-11-15T11:33:18.706Z,101.25
2022-11-15T11:34:17.115Z,101.25
2022-11-15T11:35:17.458Z,106.88
2022-11-15T11:36:17.798Z,106.88
2022-11-15T11:37:19.988Z,106.88
2022-11-15T11:38:18.397Z,106.88
2022-11-15T11:39:18.754Z,112.50
2022-11-15T11:40:19.078Z,118.12
2022-11-15T11:41:19.431Z,123.75
2022-11-15T11:42:21.606Z,123.75
2022-11-15T11:43:19.900Z,123.75
2022-11-15T11:44:20.238Z,129.38
2022-11-15T11:45:20.575Z,140.62
2022-11-15T11:46:22.763Z,146.25
2022-11-15T11:47:21.179Z,146.25
2022-11-15T11:48:23.386Z,140.62
2022-11-15T11:49:22.747Z,140.62
2022-11-15T11:50:22.905Z,140.62
2022-11-15T11:51:23.313Z,140.62
2022-11-15T11:52:24.539Z,140.62
2022-11-15T11:53:24.703Z,140.62
2022-11-15T11:54:23.108Z,140.62
2022-11-15T11:55:23.454Z,146.25
2022-11-15T11:56:24.636Z,146.25
2022-11-15T11:57:25.991Z,146.25
2022-11-15T11:58:26.155Z,146.25
2022-11-15T11:59:24.566Z,135.00
2022-11-15T12:00:24.903Z,123.75
2022-11-15T12:01:25.246Z,123.75
2022-11-15T12:02:25.726Z,129.38
2022-11-15T12:03:27.764Z,140.62
2022-11-15T12:04:26.171Z,151.88
2022-11-15T12:05:26.510Z,157.50
2022-11-15T12:06:26.850Z,163.12
2022-11-15T12:07:27.259Z,174.38
2022-11-15T12:08:29.845Z,180.00
2022-11-15T12:09:27.786Z,185.62
2022-11-15T12:10:28.110Z,191.25
2022-11-15T12:11:28.456Z,202.50
2022-11-15T12:12:28.801Z,213.75
2022-11-15T12:13:30.989Z,241.88
2022-11-15T12:14:29.397Z,270.00
2022-11-15T12:15:31.583Z,264.38
2022-11-15T12:16:31.767Z,253.12
2022-11-15T12:17:30.308Z,270.00
2022-11-15T12:18:30.917Z,315.00
2022-11-15T12:19:30.836Z,320.62
2022-11-15T12:20:33.018Z,286.88
2022-11-15T12:21:33.212Z,247.50
2022-11-15T12:22:33.397Z,219.38
2022-11-15T12:23:33.596Z,208.12
2022-11-15T12:24:34.277Z,202.50
2022-11-15T12:25:34.464Z,196.88
2022-11-15T12:26:34.622Z,191.25
2022-11-15T12:27:34.843Z,191.25
2022-11-15T12:28:35.280Z,202.50
2022-11-15T12:29:35.725Z,236.25
2022-11-15T12:30:35.943Z,286.88
2022-11-15T12:31:36.102Z,315.00
2022-11-15T12:32:36.291Z,343.12
2022-11-15T12:33:36.979Z,365.62
2022-11-15T12:34:37.186Z,382.50
2022-11-15T12:35:37.358Z,393.75
2022-11-15T12:36:38.057Z,399.38
2022-11-15T12:37:38.218Z,405.00
2022-11-15T12:38:36.647Z,421.88
2022-11-15T12:39:38.827Z,438.75
2022-11-15T12:40:39.025Z,455.62
2022-11-15T12:41:39.184Z,461.25
2022-11-15T12:42:39.385Z,455.62
2022-11-15T12:43:40.051Z,450.00
2022-11-15T12:44:38.444Z,450.00
2022-11-15T12:45:40.524Z,455.62
2022-11-15T12:46:40.715Z,466.88
2022-11-15T12:47:40.905Z,478.12
2022-11-15T12:48:41.073Z,483.75
2022-11-15T12:49:41.770Z,478.12
2022-11-15T12:50:41.926Z,478.12
2022-11-15T12:51:42.089Z,483.75
2022-11-15T12:52:42.251Z,495.00
2022-11-15T12:53:42.936Z,517.50
2022-11-15T12:54:43.144Z,545.62
2022-11-15T12:55:43.318Z,523.12
2022-11-15T12:56:43.509Z,483.75
2022-11-15T12:57:44.173Z,461.25
2022-11-15T12:58:44.338Z,444.38
2022-11-15T12:59:44.516Z,416.25
2022-11-15T13:00:44.704Z,393.75